Terminal Aerodrome Forecast
Issued by NWS Binghamton, NY

Home | Current Version | Previous Version | Text Only | Print | Product List | Glossary On
Versions: 1 2 3 4 5 6 7 8 9 10 11 12 13 14 15 16 17
322
FTUS41 KBGM 211129
TAFAVP
TAF
KAVP 211129Z 2112/2212 VRB03KT P6SM SCT250
     FM211500 33010G18KT P6SM SCT250
     FM220200 VRB03KT P6SM SKC=

USA.gov is the U.S. government's official web portal to all federal, state and local government web resources and services.